Axtell, UT

7:19 PM MDT on July 31, 2014 (GMT -0600)
Carbon County (KPUC) Elev 5955 ft | 39.61 °N, 110.75 °W | Change Station
Active Advisory: Flash Flood Warning Active Notice: Record Report

Current weather conditions updated 11 minutes ago

Light Rain
Light Rain
68 °F
Feels Like 68 °F
N
12
Wind Variable Wind from ENE

Tomorrow is forecast to be nearly the same temperature as today.

Today
High -- | Low -- °F
--% Chance of Precip.
Yesterday
High -- | Low -- °F
Precip. -- in
6:26 AM 8:39 PM
Waxing Crescent, 22% visible
Pressure 30.19 in
Visibility 10.0 miles
Clouds Mostly Cloudy 7500 ft
Overcast 10000 ft
Dew Point 57 °F
Humidity 68%
Rainfall 0.05 in
Snow Depth Not available.
UV 0 out of 12
Pollen 6.50 out of 12
Air Quality Not available.
Flu Activity Not available.
SPECI KPUC 010108Z AUTO 07010KT 10SM -RA BKN075 OVC100 20/14 A3019 RMK AO2 LTG DSNT ALQDS P0004 T02000139

More Conditions Fewer Conditions

Pressure 30.19 in
Visibility 10.0 miles
Clouds Mostly Cloudy 7500 ft
Overcast 10000 ft
Dew Point 57 °F
Humidity 68%
Rainfall 0.05 in
Snow Depth Not available.
UV 0 out of 12
Pollen 6.50 out of 12
Air Quality Not available.
Flu Activity Not available.
SPECI KPUC 010108Z AUTO 07010KT 10SM -RA BKN075 OVC100 20/14 A3019 RMK AO2 LTG DSNT ALQDS P0004 T02000139

More Conditions Fewer Conditions

10-Day Weather Forecast

Almanac

Astronomy

Jul. 31, 2014 Rise Set
Actual Time 6:26 AM MDT 8:39 PM MDT
Civil Twilight 5:56 AM MDT 9:09 PM MDT
Nautical Twilight 5:20 AM MDT 9:46 PM MDT
Astronomical Twilight 4:39 AM MDT 10:25 PM MDT
Moon 10:55 AM MDT (7/31) 10:57 PM MDT (7/31)
Length of Visible Light 15h 12m
Length of Day
14h 12m
Tomorrow will be 1m 54s shorter.
Waxing Crescent, 22% of the Moon is Illuminated
Today
Waxing Crescent
Aug 3
First Quarter
Aug 10
Full
Aug 17
Last Quarter
Aug 25
New

Today's Extremes

State Highs State Lows

Community

WunderPhotos

Upload Photos

1,739,477 photos uploaded!

Nearby

Snow Depth

Station Depth Elevation
Gooseberry R.S. 0 in 7920 ft
Payson R.S. 0 in 8050 ft
Cascade Mountain 0 in 7768 ft
Daniels-Strawberry 0 in 8000 ft
Rocky Basin-Settlement 0 in 8900 ft

Earthquake Activity

City Distance Mag. Time & Date
No recent earthquake activity has been reported nearby.
Minimum magnitude displayed is 2.5.

Coastal Water Temperatures

Place Temperature
No Stations Reporting

Nearby Weather Stations

Station Location Temp. Heat Index Dew Point Humidity Wind Precip. Elev Updated Type
RAWS FILLMORE PORT #2 UT, Scipio, UT 76 °F 77 °F 41 °F 29% West  at  20 mph 0.00 in / hr 6157 ft 5:57 PM MDT MADIS
RAWS SEVIER RESERVOIR UT, Scipio, UT 83 °F 81 °F 42 °F 24% NW  at  8 mph 0.00 in / hr 5369 ft 5:51 PM MDT MADIS
RAWS LOST CREEK UT, Glenwood, UT 69 °F - 42 °F 37% NW  at  10 mph 0.00 in / hr 7490 ft 6:37 PM MDT MADIS
RAWS FISHLAKE D4 PT #5 UT, Emery, UT 68 °F - 43 °F 40% NW  at  10 mph 0.00 in / hr 8754 ft 6:24 PM MDT MADIS

Show More Stations Show Fewer Stations